Terminal Aerodrome Forecast
Issued by NWS

Home | Current Version | Previous Version | Text Only | Print | Product List | Glossary On
Versions: 1 2 3 4 5 6 7 8 9 10 11 12 13
000
FTUS46 KLOX 252300 RRA
TAFBUR
TAF
KBUR 252348Z 2600/2624 15007KT P6SM FEW100
     FM260200 VRB03KT P6SM SKC
     FM261000 VRB03KT 6SM BR BKN010
     FM261500 VRB03KT P6SM SCT015
     FM261800 19008KT P6SM SKC=

USA.gov is the U.S. government's official web portal to all federal, state and local government web resources and services.